createdAt,value
2023-04-21T00:02:17.450Z,4.40
2023-04-21T00:04:46.423Z,2.77
2023-04-21T00:07:14.778Z,3.90
2023-04-21T00:09:41.935Z,3.53
2023-04-21T00:12:09.275Z,5.43
2023-04-21T00:14:36.815Z,1.53
2023-04-21T00:17:03.953Z,2.80
2023-04-21T00:19:31.615Z,3.33
2023-04-21T00:21:59.976Z,1.87
2023-04-21T00:24:27.154Z,2.73
2023-04-21T00:26:54.256Z,3.00
2023-04-21T00:29:22.081Z,4.40
2023-04-21T00:31:49.415Z,3.57
2023-04-21T00:34:16.570Z,3.63
2023-04-21T00:36:43.684Z,3.43
2023-04-21T00:39:10.803Z,2.90
2023-04-21T00:41:40.181Z,1.30
2023-04-21T00:44:08.194Z,1.73
2023-04-21T00:46:35.896Z,1.57
2023-04-21T00:49:05.999Z,4.23
2023-04-21T00:51:34.119Z,2.03
2023-04-21T00:54:01.659Z,3.37
2023-04-21T00:56:30.555Z,4.10
2023-04-21T00:58:58.657Z,4.83
2023-04-21T01:01:26.197Z,2.40
2023-04-21T01:03:53.503Z,4.13
2023-04-21T01:06:20.783Z,2.30
2023-04-21T01:08:47.965Z,3.53
2023-04-21T01:11:15.375Z,3.40
2023-04-21T01:13:42.942Z,2.93
2023-04-21T01:16:10.108Z,4.10
2023-04-21T01:18:37.740Z,2.50
2023-04-21T01:21:05.662Z,2.17
2023-04-21T01:23:32.857Z,4.10
2023-04-21T01:25:59.983Z,4.37
2023-04-21T01:28:27.433Z,2.90
2023-04-21T01:30:54.712Z,3.93
2023-04-21T01:33:22.361Z,2.97
2023-04-21T01:35:50.028Z,5.70
2023-04-21T01:38:20.652Z,3.20
2023-04-21T01:40:51.342Z,1.53
2023-04-21T01:43:19.854Z,3.27
2023-04-21T01:45:48.035Z,1.53
2023-04-21T01:48:15.241Z,3.40
2023-04-21T01:50:42.462Z,4.03
2023-04-21T01:53:09.765Z,3.63
2023-04-21T01:55:37.348Z,1.70
2023-04-21T01:58:04.467Z,3.70
2023-04-21T02:00:32.303Z,2.33
2023-04-21T02:02:59.612Z,2.47
2023-04-21T02:05:26.885Z,1.77
2023-04-21T02:07:54.670Z,4.80
2023-04-21T02:10:21.907Z,2.30
2023-04-21T02:12:49.060Z,3.03
2023-04-21T02:15:16.415Z,1.57
2023-04-21T02:17:44.996Z,3.53
2023-04-21T02:20:12.550Z,3.40
2023-04-21T02:22:41.356Z,3.13
2023-04-21T02:25:08.648Z,2.23
2023-04-21T02:27:36.048Z,4.50
2023-04-21T02:30:04.871Z,3.60
2023-04-21T02:32:32.491Z,2.70
2023-04-21T02:34:59.786Z,3.13
2023-04-21T02:37:27.345Z,2.80
2023-04-21T02:39:54.719Z,2.70
2023-04-21T02:42:21.869Z,2.90
2023-04-21T02:44:49.338Z,4.83
2023-04-21T02:47:16.954Z,1.20
2023-04-21T02:49:44.783Z,1.17
2023-04-21T02:52:12.582Z,1.57
2023-04-21T02:54:39.703Z,2.30
2023-04-21T02:57:07.308Z,1.53
2023-04-21T02:59:34.451Z,2.67
2023-04-21T03:02:01.629Z,3.03
2023-04-21T03:04:29.217Z,2.40
2023-04-21T03:06:56.512Z,2.80
2023-04-21T03:09:24.031Z,2.90
2023-04-21T03:11:51.301Z,3.10
2023-04-21T03:14:18.980Z,1.73
2023-04-21T03:16:47.344Z,3.33
2023-04-21T03:19:14.496Z,4.50
2023-04-21T03:21:41.566Z,3.40
2023-04-21T03:24:08.759Z,1.83
2023-04-21T03:26:36.187Z,2.00
2023-04-21T03:29:03.342Z,2.30
2023-04-21T03:31:31.132Z,2.53
2023-04-21T03:33:58.350Z,1.00
2023-04-21T03:36:25.691Z,3.13
2023-04-21T03:38:53.299Z,1.90
2023-04-21T03:41:20.403Z,4.27
2023-04-21T03:43:47.600Z,3.83
2023-04-21T03:46:23.141Z,2.70
2023-04-21T03:48:50.586Z,1.50
2023-04-21T03:51:17.827Z,1.63
2023-04-21T03:53:45.234Z,3.80
2023-04-21T03:56:12.316Z,3.70
2023-04-21T03:58:39.417Z,2.60
2023-04-21T04:01:07.727Z,2.23
2023-04-21T04:03:35.398Z,5.03
2023-04-21T04:06:04.472Z,3.00
2023-04-21T04:08:31.605Z,4.07
2023-04-21T04:10:58.978Z,1.97
2023-04-21T04:13:27.047Z,2.70
2023-04-21T04:15:54.311Z,2.30
2023-04-21T04:18:22.636Z,4.60
2023-04-21T04:20:49.768Z,3.80
2023-04-21T04:23:17.727Z,2.10
2023-04-21T04:25:45.416Z,3.50
2023-04-21T04:28:12.715Z,2.10
2023-04-21T04:30:40.814Z,2.23
2023-04-21T04:33:10.111Z,3.87
2023-04-21T04:35:37.811Z,3.00
2023-04-21T04:38:04.951Z,3.17
2023-04-21T04:40:33.744Z,1.70
2023-04-21T04:43:03.350Z,2.57
2023-04-21T04:45:33.047Z,2.57
2023-04-21T04:48:00.650Z,1.57
2023-04-21T04:50:27.984Z,2.67
2023-04-21T04:52:56.231Z,4.57
2023-04-21T04:55:23.775Z,2.07
2023-04-21T04:57:51.696Z,3.87
2023-04-21T05:00:19.071Z,2.77
2023-04-21T05:02:46.381Z,3.20
2023-04-21T05:05:13.984Z,4.10
2023-04-21T05:07:41.168Z,2.50
2023-04-21T05:10:08.470Z,1.70
2023-04-21T05:12:36.037Z,4.80
2023-04-21T05:15:03.373Z,1.70
2023-04-21T05:17:31.336Z,2.70
2023-04-21T05:19:58.549Z,2.10
2023-04-21T05:22:26.216Z,2.00
2023-04-21T05:24:53.806Z,5.33
2023-04-21T05:27:21.019Z,2.77
2023-04-21T05:29:48.638Z,3.13
2023-04-21T05:32:15.875Z,3.07
2023-04-21T05:34:43.022Z,1.73
2023-04-21T05:37:12.168Z,2.70
2023-04-21T05:39:39.477Z,6.63
2023-04-21T05:42:06.791Z,5.43
2023-04-21T05:44:33.924Z,4.07
2023-04-21T05:47:01.041Z,5.40
2023-04-21T05:49:28.687Z,3.23
2023-04-21T05:51:56.085Z,3.60
2023-04-21T05:54:23.282Z,3.00
2023-04-21T05:56:50.493Z,3.13
2023-04-21T05:59:17.621Z,3.80
2023-04-21T06:01:44.725Z,2.00
2023-04-21T06:04:12.131Z,2.90
2023-04-21T06:06:39.627Z,2.27
2023-04-21T06:09:08.090Z,1.87
2023-04-21T06:11:35.257Z,2.27
2023-04-21T06:14:02.423Z,2.93
2023-04-21T06:16:32.401Z,1.97
2023-04-21T06:18:59.681Z,2.47
2023-04-21T06:21:26.898Z,2.47
2023-04-21T06:23:54.091Z,6.50
2023-04-21T06:26:22.237Z,3.70
2023-04-21T06:28:49.534Z,2.10
2023-04-21T06:31:16.739Z,2.87
2023-04-21T06:33:44.259Z,3.33
2023-04-21T06:36:11.381Z,4.00
2023-04-21T06:38:40.033Z,4.50
2023-04-21T06:41:07.259Z,4.67
2023-04-21T06:43:34.387Z,3.17
2023-04-21T06:46:01.726Z,4.40
2023-04-21T06:48:30.175Z,2.03
2023-04-21T06:50:57.448Z,4.13
2023-04-21T06:53:24.544Z,3.13
2023-04-21T06:55:52.953Z,3.87
2023-04-21T06:58:21.396Z,2.90
2023-04-21T07:00:48.849Z,4.33
2023-04-21T07:03:16.230Z,5.23
2023-04-21T07:05:43.414Z,2.87
2023-04-21T07:08:10.522Z,3.90
2023-04-21T07:10:37.667Z,4.47
2023-04-21T07:13:04.909Z,3.60
2023-04-21T07:15:32.072Z,4.60
2023-04-21T07:17:59.291Z,2.47
2023-04-21T07:20:26.667Z,4.27
2023-04-21T07:22:54.272Z,2.67
2023-04-21T07:25:21.845Z,4.53
2023-04-21T07:27:49.119Z,2.97
2023-04-21T07:30:16.328Z,4.97
2023-04-21T07:32:43.779Z,4.87
2023-04-21T07:35:11.097Z,3.67
2023-04-21T07:37:39.997Z,3.50
2023-04-21T07:40:08.351Z,3.10
2023-04-21T07:42:35.506Z,4.47
2023-04-21T07:45:02.781Z,2.97
2023-04-21T07:47:30.473Z,2.67
2023-04-21T07:49:57.906Z,4.03
2023-04-21T07:52:25.868Z,2.67
2023-04-21T07:54:53.002Z,4.10
2023-04-21T07:57:20.167Z,6.27
2023-04-21T07:59:47.328Z,4.77
2023-04-21T08:02:14.596Z,4.00
2023-04-21T08:04:41.854Z,3.40
2023-04-21T08:07:11.158Z,5.73
2023-04-21T08:09:38.327Z,6.73
2023-04-21T08:12:05.595Z,4.63
2023-04-21T08:14:32.775Z,6.60
2023-04-21T08:17:00.571Z,4.17
2023-04-21T08:19:27.747Z,4.97
2023-04-21T08:21:55.090Z,7.07
2023-04-21T08:24:22.441Z,4.43
2023-04-21T08:26:49.900Z,4.13
2023-04-21T08:29:17.123Z,3.87
2023-04-21T08:31:44.394Z,3.60
2023-04-21T08:34:11.656Z,5.40
2023-04-21T08:36:39.192Z,4.90
2023-04-21T08:39:06.341Z,4.97
2023-04-21T08:41:33.489Z,10.23
2023-04-21T08:44:00.698Z,10.20
2023-04-21T08:46:28.815Z,8.40
2023-04-21T08:48:56.127Z,8.03
2023-04-21T08:51:24.529Z,3.10
2023-04-21T08:53:52.202Z,5.13
2023-04-21T08:56:19.419Z,6.00
2023-04-21T08:58:46.952Z,4.43
2023-04-21T09:01:14.213Z,4.10
2023-04-21T09:03:42.125Z,3.63
2023-04-21T09:06:10.590Z,5.93
2023-04-21T09:08:39.709Z,4.60
2023-04-21T09:11:07.030Z,1.77
2023-04-21T09:13:35.321Z,2.43
2023-04-21T09:16:05.655Z,4.23
2023-04-21T09:18:37.868Z,3.07
2023-04-21T09:21:08.088Z,3.40
2023-04-21T09:23:42.619Z,3.50
2023-04-21T09:26:10.343Z,5.40
2023-04-21T09:28:37.644Z,6.57
2023-04-21T09:31:05.149Z,2.70
2023-04-21T09:33:42.711Z,5.63
2023-04-21T09:36:32.298Z,6.33
2023-04-21T09:41:32.781Z,5.50
2023-04-21T09:44:04.725Z,2.63
2023-04-21T09:46:34.082Z,2.83
2023-04-21T09:49:02.010Z,2.93
2023-04-21T09:51:52.776Z,4.47
2023-04-21T09:56:52.378Z,4.80
2023-04-21T09:59:23.564Z,4.00
2023-04-21T10:01:51.361Z,1.63
2023-04-21T10:04:19.643Z,3.20
2023-04-21T10:06:48.155Z,2.80
2023-04-21T10:09:18.978Z,3.93
2023-04-21T10:11:46.146Z,4.50
2023-04-21T10:14:14.329Z,4.73
2023-04-21T10:16:41.922Z,3.63
2023-04-21T10:19:28.286Z,2.50
2023-04-21T10:21:58.673Z,2.10
2023-04-21T10:24:29.113Z,4.10
2023-04-21T10:27:02.308Z,3.80
2023-04-21T10:29:44.173Z,2.00
2023-04-21T10:32:41.818Z,3.43
2023-04-21T10:35:17.299Z,3.83
2023-04-21T10:37:44.683Z,2.97
2023-04-21T10:40:43.613Z,4.40
2023-04-21T10:43:30.890Z,3.23
2023-04-21T10:45:57.996Z,3.00
2023-04-21T10:48:27.016Z,2.70
2023-04-21T10:50:54.292Z,2.40
2023-04-21T10:53:26.124Z,3.00
2023-04-21T10:55:53.619Z,4.70
2023-04-21T10:58:22.637Z,4.10
2023-04-21T11:00:55.399Z,3.50
2023-04-21T11:03:22.728Z,1.83
2023-04-21T11:05:49.896Z,2.97
2023-04-21T11:08:17.083Z,3.70
2023-04-21T11:10:54.760Z,2.77
2023-04-21T11:13:26.327Z,2.97
2023-04-21T11:15:57.689Z,2.80
2023-04-21T11:18:34.208Z,2.50
2023-04-21T11:21:28.906Z,2.47
2023-04-21T11:23:56.919Z,3.33
2023-04-21T11:26:38.486Z,3.43
2023-04-21T11:29:06.642Z,3.03
2023-04-21T11:31:34.031Z,3.47
2023-04-21T11:34:01.812Z,3.23
2023-04-21T11:36:29.235Z,2.87
2023-04-21T11:38:56.419Z,3.50
2023-04-21T11:41:24.519Z,2.17
2023-04-21T11:43:52.466Z,2.17
2023-04-21T11:46:27.111Z,2.50
2023-04-21T11:49:01.418Z,2.63
2023-04-21T11:51:33.640Z,2.47
2023-04-21T11:54:00.841Z,1.37
2023-04-21T11:56:28.495Z,2.23
2023-04-21T11:58:56.160Z,4.33
2023-04-21T12:01:23.358Z,3.53
2023-04-21T12:03:55.244Z,2.57
2023-04-21T12:06:23.466Z,2.23
2023-04-21T12:08:56.871Z,3.27
2023-04-21T12:11:24.995Z,2.97
2023-04-21T12:13:52.421Z,2.67
2023-04-21T12:16:20.452Z,3.73
2023-04-21T12:18:49.151Z,2.93
2023-04-21T12:21:17.209Z,3.37
2023-04-21T12:23:44.824Z,2.30
2023-04-21T12:26:12.527Z,2.53
2023-04-21T12:28:39.814Z,3.83
2023-04-21T12:31:07.817Z,3.00
2023-04-21T12:33:35.280Z,3.40
2023-04-21T12:36:02.444Z,2.70
2023-04-21T12:38:29.547Z,3.63
2023-04-21T12:40:56.657Z,3.30
2023-04-21T12:43:24.197Z,2.50
2023-04-21T12:45:52.729Z,3.20
2023-04-21T12:48:23.252Z,2.90
2023-04-21T12:50:50.419Z,2.50
2023-04-21T12:53:17.635Z,2.60
2023-04-21T12:55:56.793Z,3.47
2023-04-21T12:58:28.365Z,2.67
2023-04-21T13:00:55.656Z,3.03
2023-04-21T13:03:23.043Z,2.37
2023-04-21T13:05:50.335Z,2.53
2023-04-21T13:08:18.953Z,2.53
2023-04-21T13:10:46.035Z,3.00
2023-04-21T13:13:13.202Z,2.90
2023-04-21T13:15:40.361Z,2.93
2023-04-21T13:18:07.512Z,2.73
2023-04-21T13:20:36.092Z,2.20
2023-04-21T13:23:03.209Z,2.50
2023-04-21T13:25:30.421Z,2.53
2023-04-21T13:27:58.195Z,2.23
2023-04-21T13:30:26.221Z,3.23
2023-04-21T13:32:53.423Z,2.50
2023-04-21T13:35:20.629Z,3.90
2023-04-21T13:37:49.256Z,2.60
2023-04-21T13:40:16.388Z,2.57
2023-04-21T13:42:43.532Z,2.30
2023-04-21T13:45:11.008Z,2.80
2023-04-21T13:47:38.277Z,2.30
2023-04-21T13:50:05.838Z,3.60
2023-04-21T13:52:34.931Z,3.20
2023-04-21T13:55:02.053Z,2.07
2023-04-21T13:57:29.773Z,4.07
2023-04-21T13:59:57.072Z,3.60
2023-04-21T14:02:26.192Z,2.97
2023-04-21T14:04:55.635Z,2.10
2023-04-21T14:07:25.734Z,3.37
2023-04-21T14:09:54.668Z,3.20
2023-04-21T14:12:21.827Z,2.93
2023-04-21T14:14:49.089Z,2.97
2023-04-21T14:17:17.046Z,2.80
2023-04-21T14:19:44.685Z,2.77
2023-04-21T14:22:11.876Z,2.97
2023-04-21T14:24:41.368Z,2.30
2023-04-21T14:27:08.515Z,2.73
2023-04-21T14:29:35.953Z,2.00
2023-04-21T14:32:03.339Z,1.70
2023-04-21T14:34:30.621Z,2.50
2023-04-21T14:36:57.785Z,1.90
2023-04-21T14:39:24.965Z,2.70
2023-04-21T14:41:52.332Z,2.13
2023-04-21T14:44:19.588Z,2.60
2023-04-21T14:46:56.921Z,1.90
2023-04-21T14:49:33.279Z,1.90
2023-04-21T14:52:00.752Z,2.70
2023-04-21T14:54:27.968Z,1.90
2023-04-21T14:57:06.572Z,2.00
2023-04-21T14:59:44.605Z,2.07
2023-04-21T15:02:12.636Z,2.30
2023-04-21T15:04:40.008Z,2.33
2023-04-21T15:07:07.402Z,2.33
2023-04-21T15:09:35.890Z,1.73
2023-04-21T15:12:03.418Z,1.63
2023-04-21T15:14:30.944Z,1.53
2023-04-21T15:16:58.396Z,1.77
2023-04-21T15:19:25.874Z,1.87
2023-04-21T15:21:53.016Z,2.30
2023-04-21T15:24:20.942Z,2.00
2023-04-21T15:26:48.098Z,1.97
2023-04-21T15:29:15.542Z,1.93
2023-04-21T15:31:42.728Z,1.87
2023-04-21T15:34:10.147Z,1.97
2023-04-21T15:36:37.307Z,1.60
2023-04-21T15:39:04.561Z,1.47
2023-04-21T15:41:31.794Z,1.60
2023-04-21T15:44:00.666Z,1.73
2023-04-21T15:46:28.149Z,1.50
2023-04-21T15:48:55.428Z,1.47
2023-04-21T15:51:23.073Z,1.60
2023-04-21T15:53:50.578Z,1.10
2023-04-21T15:56:17.884Z,1.57
2023-04-21T15:58:45.930Z,1.73
2023-04-21T16:01:13.248Z,1.40
2023-04-21T16:03:40.634Z,1.40
2023-04-21T16:06:08.155Z,2.67
2023-04-21T16:08:36.473Z,2.17
2023-04-21T16:11:04.355Z,1.40
2023-04-21T16:13:31.673Z,1.40
2023-04-21T16:15:58.910Z,1.33
2023-04-21T16:18:29.666Z,0.87
2023-04-21T16:20:57.022Z,1.97
2023-04-21T16:23:25.290Z,1.43
2023-04-21T16:25:52.488Z,0.97
2023-04-21T16:28:20.439Z,1.20
2023-04-21T16:30:48.270Z,1.30
2023-04-21T16:33:15.738Z,2.00
2023-04-21T16:35:42.944Z,1.87
2023-04-21T16:38:10.193Z,1.20
2023-04-21T16:40:37.768Z,1.40
2023-04-21T16:43:05.122Z,1.30
2023-04-21T16:45:32.482Z,1.10
2023-04-21T16:47:59.808Z,1.70
2023-04-21T16:50:27.102Z,1.30
2023-04-21T16:52:54.430Z,1.13
2023-04-21T16:55:21.988Z,1.27
2023-04-21T16:57:49.360Z,1.87
2023-04-21T17:00:17.409Z,1.67
2023-04-21T17:02:44.739Z,0.93
2023-04-21T17:05:12.180Z,1.67
2023-04-21T17:07:43.450Z,1.03
2023-04-21T17:10:10.771Z,1.77
2023-04-21T17:12:39.042Z,1.63
2023-04-21T17:15:07.418Z,1.40
2023-04-21T17:17:42.645Z,0.80
2023-04-21T17:20:13.637Z,2.07
2023-04-21T17:22:41.910Z,1.77
2023-04-21T17:25:09.726Z,1.40
2023-04-21T17:27:37.328Z,1.13
2023-04-21T17:30:05.516Z,0.80
2023-04-21T17:32:33.925Z,0.93
2023-04-21T17:35:01.684Z,1.03
2023-04-21T17:37:30.382Z,0.57
2023-04-21T17:40:01.070Z,0.97
2023-04-21T17:42:29.638Z,1.53
2023-04-21T17:44:56.786Z,2.50
2023-04-21T17:47:24.064Z,2.00
2023-04-21T17:49:51.537Z,0.73
2023-04-21T17:52:19.454Z,1.90
2023-04-21T17:54:46.762Z,1.10
2023-04-21T17:57:13.977Z,1.80
2023-04-21T17:59:41.833Z,1.20
2023-04-21T18:02:09.137Z,0.63
2023-04-21T18:04:37.209Z,1.10
2023-04-21T18:07:04.889Z,1.03
2023-04-21T18:09:32.566Z,1.30
2023-04-21T18:11:59.752Z,1.37
2023-04-21T18:14:27.558Z,0.90
2023-04-21T18:16:55.476Z,1.47
2023-04-21T18:19:23.369Z,2.03
2023-04-21T18:21:50.641Z,1.80
2023-04-21T18:24:17.800Z,4.30
2023-04-21T18:26:45.222Z,1.00
2023-04-21T18:29:12.329Z,1.13
2023-04-21T18:31:39.565Z,1.60
2023-04-21T18:34:08.590Z,1.20
2023-04-21T18:36:37.809Z,0.97
2023-04-21T18:39:05.688Z,1.60
2023-04-21T18:41:32.896Z,3.83
2023-04-21T18:44:00.097Z,2.80
2023-04-21T18:46:27.878Z,1.33
2023-04-21T18:48:55.106Z,1.23
2023-04-21T18:51:22.250Z,1.10
2023-04-21T18:53:49.410Z,1.43
2023-04-21T18:56:16.531Z,1.50
2023-04-21T18:58:43.929Z,1.10
2023-04-21T19:01:11.141Z,0.93
2023-04-21T19:03:38.489Z,0.80
2023-04-21T19:06:05.844Z,1.37
2023-04-21T19:08:42.281Z,2.30
2023-04-21T19:11:11.827Z,1.40
2023-04-21T19:13:39.231Z,0.80
2023-04-21T19:16:08.699Z,0.80
2023-04-21T19:18:35.988Z,1.27
2023-04-21T19:21:04.511Z,0.80
2023-04-21T19:23:31.713Z,0.67
2023-04-21T19:25:59.948Z,1.40
2023-04-21T19:28:27.592Z,0.50
2023-04-21T19:30:54.847Z,1.40
2023-04-21T19:33:22.060Z,1.43
2023-04-21T19:35:49.322Z,1.70
2023-04-21T19:38:16.438Z,0.53
2023-04-21T19:40:44.947Z,1.13
2023-04-21T19:43:12.754Z,1.30
2023-04-21T19:45:40.458Z,1.20
2023-04-21T19:48:07.892Z,1.10
2023-04-21T19:50:36.386Z,1.03
2023-04-21T19:53:04.091Z,1.13
2023-04-21T19:55:32.065Z,1.20
2023-04-21T19:57:59.430Z,0.60
2023-04-21T20:00:27.096Z,0.90
2023-04-21T20:02:54.772Z,1.80
2023-04-21T20:05:22.019Z,1.30
2023-04-21T20:07:49.610Z,3.00
2023-04-21T20:10:16.823Z,1.90
2023-04-21T20:12:44.157Z,1.40
2023-04-21T20:15:13.269Z,1.80
2023-04-21T20:17:42.195Z,1.37
2023-04-21T20:20:10.016Z,2.07
2023-04-21T20:22:37.209Z,0.80
2023-04-21T20:25:04.442Z,0.97
2023-04-21T20:27:31.757Z,1.43
2023-04-21T20:29:58.916Z,0.80
2023-04-21T20:32:26.895Z,0.90
2023-04-21T20:34:54.079Z,1.30
2023-04-21T20:37:23.170Z,1.07
2023-04-21T20:39:50.478Z,0.83
2023-04-21T20:42:19.171Z,0.50
2023-04-21T20:44:47.268Z,0.80
2023-04-21T20:47:14.631Z,0.53
2023-04-21T20:49:43.797Z,0.60
2023-04-21T20:52:11.052Z,1.63
2023-04-21T20:54:38.699Z,0.93
2023-04-21T20:57:07.668Z,0.60
2023-04-21T20:59:35.097Z,1.13
2023-04-21T21:02:02.489Z,0.87
2023-04-21T21:04:29.803Z,1.03
2023-04-21T21:06:56.958Z,0.50
2023-04-21T21:09:24.142Z,0.73
2023-04-21T21:11:51.254Z,0.73
2023-04-21T21:14:18.409Z,0.70
2023-04-21T21:16:46.032Z,0.33
2023-04-21T21:19:13.227Z,0.50
2023-04-21T21:21:40.422Z,0.87
2023-04-21T21:24:08.123Z,0.60
2023-04-21T21:26:35.824Z,1.30
2023-04-21T21:29:03.434Z,0.23
2023-04-21T21:31:30.655Z,0.50
2023-04-21T21:33:58.505Z,0.73
2023-04-21T21:36:25.950Z,0.53
2023-04-21T21:38:53.316Z,0.20
2023-04-21T21:41:20.848Z,0.60
2023-04-21T21:43:48.063Z,0.30
2023-04-21T21:46:15.320Z,0.37
2023-04-21T21:48:43.041Z,0.30
2023-04-21T21:51:10.183Z,0.67
2023-04-21T21:53:37.431Z,1.23
2023-04-21T21:56:04.695Z,0.30
2023-04-21T21:58:31.939Z,0.40
2023-04-21T22:00:59.344Z,0.60
2023-04-21T22:03:27.261Z,0.60
2023-04-21T22:05:54.558Z,0.40
2023-04-21T22:08:22.061Z,0.30
2023-04-21T22:10:49.319Z,0.50
2023-04-21T22:13:16.590Z,1.47
2023-04-21T22:15:43.780Z,0.60
2023-04-21T22:18:11.254Z,0.23
2023-04-21T22:20:38.544Z,0.47
2023-04-21T22:23:05.714Z,0.30
2023-04-21T22:25:33.629Z,0.67
2023-04-21T22:28:00.752Z,0.77
2023-04-21T22:30:28.104Z,0.63
2023-04-21T22:32:55.306Z,0.80
2023-04-21T22:35:22.432Z,1.03
2023-04-21T22:37:49.923Z,0.50
2023-04-21T22:40:17.670Z,0.67
2023-04-21T22:42:44.757Z,0.53
2023-04-21T22:45:12.433Z,0.30
2023-04-21T22:47:39.567Z,0.20
2023-04-21T22:50:07.097Z,1.47
2023-04-21T22:52:34.608Z,0.83
2023-04-21T22:55:01.732Z,0.60
2023-04-21T22:57:29.242Z,0.63
2023-04-21T22:59:56.411Z,1.10
2023-04-21T23:02:23.675Z,1.00
2023-04-21T23:04:50.823Z,0.60
2023-04-21T23:07:17.977Z,0.60
2023-04-21T23:09:45.594Z,0.40
2023-04-21T23:12:12.720Z,0.30
2023-04-21T23:14:40.127Z,1.33
2023-04-21T23:17:07.665Z,0.53
2023-04-21T23:19:34.751Z,0.40
2023-04-21T23:22:01.888Z,1.17
2023-04-21T23:24:29.091Z,0.20
2023-04-21T23:26:56.409Z,0.63
2023-04-21T23:29:23.520Z,0.60
2023-04-21T23:31:51.154Z,0.40
2023-04-21T23:34:18.625Z,0.97
2023-04-21T23:36:45.752Z,0.40
2023-04-21T23:39:13.166Z,0.40
2023-04-21T23:41:40.489Z,0.50
2023-04-21T23:44:08.040Z,0.40
2023-04-21T23:46:36.148Z,0.60
2023-04-21T23:49:03.322Z,0.60
2023-04-21T23:51:31.159Z,0.43
2023-04-21T23:53:58.356Z,0.40
2023-04-21T23:56:26.737Z,0.87
2023-04-21T23:58:55.401Z,1.27
